Time;durP1;ratioP1;P1;durP2;ratioP2;P2;SDS_P1;SDS_P2;PMS_P1;PMS_P2;Temp;Humidity;BMP_temperature;BMP_pressure;BME280_temperature;BME280_humidity;BME280_pressure;Samples;Min_cycle;Max_cycle;Signal;HPM_P1;HPM_P2
2023/03/26 00:01:20;;;;;;;6.75;5.47;;;14.80;82.80;;;;;;10788472;33;20025;-72
2023/03/26 00:07:22;;;;;;;8.63;6.03;;;14.80;82.80;;;;;;10772772;32;20054;-73
2023/03/26 00:13:24;;;;;;;7.40;5.05;;;14.90;82.50;;;;;;10774707;33;20038;-72
2023/03/26 00:19:27;;;;;;;4.82;3.30;;;14.80;82.30;;;;;;10788604;33;20028;-72
2023/03/26 00:25:30;;;;;;;9.30;7.72;;;14.70;82.30;;;;;;10788593;33;20040;-72
2023/03/26 00:31:33;;;;;;;13.48;8.25;;;14.70;82.40;;;;;;10787349;33;20082;-72
2023/03/26 00:37:36;;;;;;;9.75;7.55;;;14.70;82.10;;;;;;10783076;33;20020;-72
2023/03/26 00:43:38;;;;;;;9.25;4.00;;;14.50;82.30;;;;;;10788187;33;20025;-72
2023/03/26 00:49:41;;;;;;;9.95;6.53;;;14.50;82.50;;;;;;10787698;33;20029;-72
2023/03/26 00:55:45;;;;;;;8.50;5.05;;;14.60;82.30;;;;;;10786649;33;20051;-72
2023/03/26 01:01:50;;;;;;;6.60;3.75;;;14.50;82.30;;;;;;10780141;33;20047;-72
2023/03/26 01:07:52;;;;;;;4.32;2.37;;;14.50;82.40;;;;;;10794042;33;20055;-72
2023/03/26 01:14:10;;;;;;;3.85;2.65;;;14.40;82.40;;;;;;10793811;33;20017;-72
2023/03/26 01:20:18;;;;;;;6.78;3.00;;;14.40;82.30;;;;;;10793654;33;20024;-72
2023/03/26 01:26:30;;;;;;;5.30;3.87;;;14.30;82.10;;;;;;10793449;33;20382;-72
2023/03/26 01:32:50;;;;;;;5.93;3.20;;;14.20;82.30;;;;;;10792826;33;20024;-72
2023/03/26 01:39:00;;;;;;;7.18;5.50;;;14.20;82.00;;;;;;10780123;33;20024;-72
2023/03/26 01:45:12;;;;;;;6.25;4.65;;;14.30;81.70;;;;;;10793096;33;20047;-72
2023/03/26 01:51:28;;;;;;;5.87;4.35;;;14.30;81.40;;;;;;10792577;33;20428;-72
2023/03/26 01:57:40;;;;;;;5.15;3.10;;;14.20;81.30;;;;;;10792175;33;20350;-72
2023/03/26 02:03:50;;;;;;;4.30;3.17;;;14.20;81.80;;;;;;10791448;33;20041;-72
2023/03/26 02:10:05;;;;;;;8.02;5.75;;;14.10;82.20;;;;;;10791523;33;20024;-72
2023/03/26 02:16:12;;;;;;;4.85;3.28;;;14.10;82.20;;;;;;10791247;33;20035;-72
2023/03/26 02:22:15;;;;;;;3.70;2.87;;;14.00;82.00;;;;;;10791185;33;20028;-72
2023/03/26 02:28:17;;;;;;;7.80;4.75;;;13.80;82.10;;;;;;10791525;33;20043;-72
2023/03/26 02:34:20;;;;;;;12.98;6.70;;;13.70;82.00;;;;;;10791437;33;20029;-72
2023/03/26 02:40:23;;;;;;;6.75;5.05;;;13.70;81.80;;;;;;10790509;33;20047;-72
2023/03/26 02:46:26;;;;;;;5.18;3.10;;;13.70;81.60;;;;;;10789868;33;20075;-73
2023/03/26 02:52:30;;;;;;;3.42;2.33;;;13.70;81.40;;;;;;10789874;33;20043;-72
2023/03/26 02:58:33;;;;;;;4.85;2.45;;;13.60;81.40;;;;;;10790564;33;20358;-72
2023/03/26 03:04:35;;;;;;;11.27;6.62;;;13.50;81.40;;;;;;10778065;33;20020;-72
2023/03/26 03:10:38;;;;;;;4.53;3.20;;;13.50;81.40;;;;;;10789854;33;20055;-71
2023/03/26 03:16:40;;;;;;;4.47;3.12;;;13.60;81.00;;;;;;10790066;33;20021;-72
2023/03/26 03:22:44;;;;;;;3.67;2.28;;;13.50;81.10;;;;;;10789430;33;20471;-72
2023/03/26 03:28:49;;;;;;;4.20;2.12;;;13.40;81.30;;;;;;10789803;33;20162;-72
2023/03/26 03:34:52;;;;;;;5.97;3.45;;;13.40;81.30;;;;;;10790140;33;20031;-72
2023/03/26 03:40:55;;;;;;;4.32;3.17;;;13.20;81.30;;;;;;10789513;33;20025;-72
2023/03/26 03:46:58;;;;;;;5.15;3.35;;;13.00;81.60;;;;;;10788428;33;20029;-72
2023/03/26 03:53:00;;;;;;;5.85;3.58;;;13.20;81.60;;;;;;10788232;33;20050;-72
2023/03/26 03:59:03;;;;;;;7.60;5.15;;;13.20;81.40;;;;;;10774288;32;20075;-72
2023/03/26 04:05:06;;;;;;;6.00;3.92;;;13.20;81.00;;;;;;10776472;33;20021;-72
2023/03/26 04:11:12;;;;;;;6.62;4.15;;;13.20;80.80;;;;;;10787652;33;20021;-72
2023/03/26 04:17:20;;;;;;;5.65;3.25;;;13.10;80.90;;;;;;10789173;33;20338;-72
2023/03/26 04:23:23;;;;;;;2.92;2.40;;;12.90;81.10;;;;;;10788528;33;20421;-72
2023/03/26 04:29:26;;;;;;;4.43;2.97;;;12.80;81.30;;;;;;10787671;33;20047;-72
2023/03/26 04:35:35;;;;;;;6.00;3.37;;;12.80;81.30;;;;;;10792281;33;20051;-71
2023/03/26 04:41:38;;;;;;;8.98;4.78;;;12.90;81.50;;;;;;10793373;33;20023;-72
2023/03/26 04:47:41;;;;;;;7.97;5.93;;;12.90;81.90;;;;;;10793970;33;20025;-72
2023/03/26 04:53:51;;;;;;;9.05;5.47;;;12.90;82.00;;;;;;10793195;33;20056;-72
2023/03/26 04:59:54;;;;;;;7.55;4.62;;;12.70;82.10;;;;;;10764373;33;20036;-72
2023/03/26 05:05:59;;;;;;;5.03;2.95;;;12.40;82.80;;;;;;10780493;32;20035;-72
2023/03/26 05:12:02;;;;;;;6.75;4.85;;;12.50;82.70;;;;;;10793473;33;20024;-72
2023/03/26 05:18:09;;;;;;;4.15;2.53;;;12.50;82.50;;;;;;10779140;33;20059;-72
2023/03/26 05:24:12;;;;;;;4.57;2.78;;;12.60;82.20;;;;;;10793742;33;20020;-71
2023/03/26 05:30:18;;;;;;;4.93;3.00;;;12.50;82.00;;;;;;10793585;33;20016;-72
2023/03/26 05:36:21;;;;;;;5.78;3.15;;;12.50;81.90;;;;;;10779529;33;20016;-72
2023/03/26 05:42:24;;;;;;;5.62;3.47;;;12.50;81.80;;;;;;10792863;33;20078;-71
2023/03/26 05:48:29;;;;;;;7.90;5.40;;;12.60;81.60;;;;;;10778778;33;20300;-72
2023/03/26 05:54:31;;;;;;;8.13;5.72;;;12.70;81.50;;;;;;10778358;33;20354;-71
2023/03/26 06:00:37;;;;;;;10.07;8.18;;;12.70;81.60;;;;;;10779707;32;20040;-72
2023/03/26 06:06:41;;;;;;;8.63;6.85;;;12.80;81.80;;;;;;10791310;33;20016;-72
2023/03/26 06:12:43;;;;;;;14.25;9.07;;;12.90;81.80;;;;;;10789771;33;20061;-71
2023/03/26 06:18:46;;;;;;;10.48;7.85;;;13.00;81.80;;;;;;10777270;33;20036;-74
2023/03/26 06:24:51;;;;;;;11.40;6.53;;;13.00;82.00;;;;;;10789257;33;20123;-74
2023/03/26 06:30:57;;;;;;;13.43;10.98;;;13.00;82.50;;;;;;10778042;33;20074;-75
2023/03/26 06:37:00;;;;;;;9.55;7.22;;;13.00;82.70;;;;;;10790998;33;20033;-75
2023/03/26 06:43:03;;;;;;;11.68;6.70;;;12.90;83.00;;;;;;10791324;33;20028;-75
2023/03/26 06:49:06;;;;;;;10.50;8.85;;;13.00;83.20;;;;;;10790036;33;20029;-75
2023/03/26 06:55:10;;;;;;;10.60;7.93;;;13.20;83.30;;;;;;10763928;33;20025;-75
2023/03/26 07:01:13;;;;;;;11.05;6.15;;;13.30;83.40;;;;;;10790647;33;20055;-75
2023/03/26 07:07:24;;;;;;;11.50;9.57;;;13.30;83.10;;;;;;10790054;33;20054;-75
2023/03/26 07:13:30;;;;;;;9.02;4.72;;;13.40;83.00;;;;;;10790100;33;20032;-74
2023/03/26 07:19:33;;;;;;;15.80;10.48;;;13.40;83.10;;;;;;10790662;33;20291;-75
2023/03/26 07:25:36;;;;;;;7.95;6.07;;;13.60;82.90;;;;;;10790485;33;20024;-75
2023/03/26 07:31:53;;;;;;;7.30;5.43;;;13.60;82.30;;;;;;10777391;33;20412;-75
2023/03/26 07:37:58;;;;;;;6.43;3.45;;;13.70;82.70;;;;;;10776529;33;20051;-75
2023/03/26 07:44:19;;;;;;;7.53;4.53;;;13.90;82.60;;;;;;10774576;32;20024;-75
2023/03/26 07:50:23;;;;;;;7.85;4.80;;;14.00;83.00;;;;;;10792158;27;20032;-74
2023/03/26 07:56:34;;;;;;;4.40;2.62;;;14.00;82.30;;;;;;10784578;33;20024;-74
2023/03/26 08:03:11;;;;;;;7.00;5.18;;;14.10;82.50;;;;;;10787530;33;20025;-74
2023/03/26 08:09:34;;;;;;;7.70;5.43;;;14.20;82.20;;;;;;10858725;32;20055;-75
2023/03/26 08:16:06;;;;;;;6.65;4.32;;;14.20;82.10;;;;;;10864059;32;20027;-75
2023/03/26 08:22:26;;;;;;;6.72;4.00;;;14.20;81.70;;;;;;10716327;33;20037;-75
2023/03/26 08:28:38;;;;;;;5.93;2.72;;;14.30;81.50;;;;;;10715362;33;20033;-74
2023/03/26 08:34:40;;;;;;;5.12;3.53;;;14.50;81.10;;;;;;10704132;33;20051;-74
2023/03/26 08:41:10;;;;;;;8.50;6.35;;;14.60;80.50;;;;;;10712882;33;20037;-74
2023/03/26 08:47:23;;;;;;;8.65;5.37;;;14.70;80.20;;;;;;10564693;33;20401;-74
2023/03/26 08:53:34;;;;;;;11.57;5.97;;;14.70;79.60;;;;;;10567340;33;20030;-74
2023/03/26 09:00:00;;;;;;;7.25;3.87;;;14.80;79.00;;;;;;10781235;32;20092;-74
2023/03/26 09:06:05;;;;;;;4.68;3.10;;;14.90;79.30;;;;;;10774666;33;20078;-75
2023/03/26 09:12:26;;;;;;;5.20;4.07;;;15.00;78.80;;;;;;10781437;33;20357;-74
2023/03/26 09:18:58;;;;;;;7.65;3.90;;;15.20;79.60;;;;;;10750842;33;20047;-74
2023/03/26 09:25:24;;;;;;;7.22;3.53;;;15.30;78.90;;;;;;10743867;33;20395;-74
2023/03/26 09:31:47;;;;;;;7.97;5.45;;;15.30;78.80;;;;;;10743599;33;20021;-74
2023/03/26 09:38:22;;;;;;;9.70;7.12;;;15.40;78.00;;;;;;10755615;33;20048;-74
2023/03/26 09:45:09;;;;;;;9.75;7.07;;;15.50;77.00;;;;;;10741009;33;20059;-74
2023/03/26 09:51:24;;;;;;;7.50;4.25;;;15.50;76.40;;;;;;10758319;33;20402;-74
2023/03/26 09:57:38;;;;;;;8.20;5.18;;;15.70;76.00;;;;;;10752488;33;20051;-74
2023/03/26 10:03:56;;;;;;;9.60;6.20;;;15.70;75.90;;;;;;10754514;33;20043;-74
2023/03/26 10:10:12;;;;;;;10.10;5.57;;;15.80;76.00;;;;;;10774711;33;20402;-73
2023/03/26 10:16:41;;;;;;;10.30;6.15;;;16.00;75.70;;;;;;10777563;32;20491;-73
2023/03/26 10:22:52;;;;;;;12.17;6.80;;;16.10;76.00;;;;;;10787416;32;20079;-72
2023/03/26 10:29:20;;;;;;;9.18;6.60;;;16.20;75.70;;;;;;10790939;33;20282;-72
2023/03/26 10:35:36;;;;;;;;;;;16.30;75.80;;;;;;10791578;33;20033;-72
2023/03/26 10:41:53;;;;;;;10.48;6.80;;;16.30;76.10;;;;;;10791751;33;20203;-72
2023/03/26 10:49:02;;;;;;;9.95;7.32;;;16.40;76.00;;;;;;10774699;33;20051;-73
2023/03/26 10:55:45;;;;;;;11.23;6.70;;;16.40;75.30;;;;;;10661540;32;20033;-71
2023/03/26 11:01:50;;;;;;;7.45;5.03;;;16.50;75.20;;;;;;10570638;32;20038;-72
2023/03/26 11:08:08;;;;;;;7.70;4.35;;;16.60;75.10;;;;;;10570570;33;20056;-73
2023/03/26 11:14:20;;;;;;;9.07;6.12;;;16.80;74.30;;;;;;10570926;33;20049;-72
2023/03/26 11:20:40;;;;;;;6.75;5.05;;;16.80;74.90;;;;;;10569575;33;20034;-72
2023/03/26 11:27:09;;;;;;;6.70;3.45;;;16.60;75.30;;;;;;10639617;33;20033;-72
2023/03/26 11:33:21;;;;;;;9.83;5.60;;;16.60;75.60;;;;;;10640539;33;20314;-72
2023/03/26 11:39:28;;;;;;;8.65;5.60;;;16.90;75.40;;;;;;10788836;33;20024;-73
2023/03/26 11:45:37;;;;;;;10.88;7.60;;;17.60;74.60;;;;;;10789128;33;20025;-72
2023/03/26 11:51:40;;;;;;;9.48;4.68;;;17.70;73.50;;;;;;10788260;33;20047;-73
2023/03/26 11:57:53;;;;;;;11.10;5.97;;;18.20;73.20;;;;;;10788425;33;20029;-73
2023/03/26 12:04:02;;;;;;;10.05;6.50;;;18.30;73.10;;;;;;10771984;33;20082;-73
2023/03/26 12:10:19;;;;;;;6.97;4.95;;;18.50;72.70;;;;;;10785653;33;20024;-72
2023/03/26 12:16:21;;;;;;;9.00;4.45;;;18.60;71.90;;;;;;10772093;33;20472;-73
2023/03/26 12:22:38;;;;;;;6.70;4.07;;;18.50;71.60;;;;;;10733625;33;20041;-74
2023/03/26 12:28:45;;;;;;;6.10;4.25;;;18.60;71.20;;;;;;10722221;32;20036;-74
2023/03/26 12:34:47;;;;;;;9.65;5.40;;;18.80;70.40;;;;;;10750849;33;20299;-75
2023/03/26 12:41:11;;;;;;;5.65;3.10;;;18.70;70.60;;;;;;10747434;33;20058;-74
2023/03/26 12:47:23;;;;;;;3.53;2.47;;;18.80;70.70;;;;;;10750977;33;20025;-74
2023/03/26 12:53:57;;;;;;;10.55;4.57;;;19.30;69.70;;;;;;10734360;32;20146;-74
2023/03/26 13:00:20;;;;;;;6.12;4.25;;;19.40;68.60;;;;;;10757645;33;20028;-74
2023/03/26 13:06:39;;;;;;;8.23;5.05;;;19.10;68.90;;;;;;10792411;33;20032;-74
2023/03/26 13:12:51;;;;;;;8.18;4.37;;;18.80;69.10;;;;;;10793815;33;20028;-75
2023/03/26 13:19:00;;;;;;;20.73;5.50;;;18.70;68.70;;;;;;10780714;33;20064;-75
2023/03/26 13:25:23;;;;;;;11.07;5.55;;;18.40;69.50;;;;;;10783124;33;20050;-74
2023/03/26 13:31:36;;;;;;;8.45;4.10;;;18.30;69.90;;;;;;10795688;33;20064;-74
2023/03/26 13:37:54;;;;;;;10.07;4.78;;;18.20;69.30;;;;;;10790074;33;20028;-74
2023/03/26 13:44:21;;;;;;;12.50;4.37;;;18.20;70.60;;;;;;10760294;33;20339;-74
2023/03/26 13:50:25;;;;;;;7.40;4.05;;;18.10;71.30;;;;;;10755413;33;20365;-74
2023/03/26 13:56:37;;;;;;;8.02;4.03;;;18.00;70.90;;;;;;10741438;33;20037;-74
2023/03/26 14:02:41;;;;;;;8.95;4.47;;;18.00;70.60;;;;;;10755075;33;20028;-74
2023/03/26 14:08:51;;;;;;;6.47;3.22;;;18.10;70.10;;;;;;10753744;33;20017;-74
2023/03/26 14:14:59;;;;;;;6.68;3.60;;;18.10;70.10;;;;;;10754455;33;20043;-74
2023/03/26 14:21:28;;;;;;;10.02;5.03;;;18.00;70.20;;;;;;10755041;33;20025;-74
2023/03/26 14:27:57;;;;;;;15.32;3.92;;;17.90;70.80;;;;;;10742079;32;20058;-74
2023/03/26 14:34:27;;;;;;;12.15;3.95;;;17.80;71.20;;;;;;10755038;33;20039;-74
2023/03/26 14:40:35;;;;;;;10.82;4.90;;;17.60;72.40;;;;;;10741685;33;20033;-74
2023/03/26 14:46:50;;;;;;;10.73;4.12;;;17.50;71.60;;;;;;10755309;33;20021;-74
2023/03/26 14:52:53;;;;;;;15.90;8.65;;;17.40;72.30;;;;;;10736747;33;20033;-74
2023/03/26 14:59:07;;;;;;;12.25;4.03;;;17.20;73.00;;;;;;10754196;33;20052;-74
2023/03/26 15:05:48;;;;;;;12.82;6.35;;;16.90;73.80;;;;;;10741165;32;20051;-74
2023/03/26 15:12:00;;;;;;;10.73;5.78;;;16.80;74.10;;;;;;10753179;33;20017;-74
2023/03/26 15:18:21;;;;;;;10.52;5.55;;;16.70;74.30;;;;;;10753729;33;20055;-74
2023/03/26 15:24:29;;;;;;;17.77;8.88;;;16.50;74.70;;;;;;10749349;33;20017;-74
2023/03/26 15:31:29;;;;;;;10.07;6.15;;;16.30;74.80;;;;;;10753195;33;20021;-74
2023/03/26 15:37:59;;;;;;;12.35;6.22;;;16.20;75.10;;;;;;10738355;32;20029;-74
2023/03/26 15:44:18;;;;;;;14.15;6.70;;;16.20;75.50;;;;;;10738481;33;20049;-74
2023/03/26 15:50:34;;;;;;;8.70;5.50;;;16.20;75.80;;;;;;10240883;33;17347273;-74
2023/03/26 15:56:55;;;;;;;4.60;3.37;;;16.10;76.20;;;;;;10775493;33;20025;-74
2023/03/26 16:03:10;;;;;;;7.60;4.65;;;16.20;76.10;;;;;;10789242;33;20318;-74
2023/03/26 16:09:31;;;;;;;7.28;3.78;;;16.20;76.00;;;;;;10774073;33;20032;-74
2023/03/26 16:15:34;;;;;;;16.35;4.30;;;16.10;76.00;;;;;;10784799;33;20050;-75
2023/03/26 16:21:43;;;;;;;7.32;2.95;;;16.10;76.20;;;;;;10788371;33;20024;-75
2023/03/26 16:27:45;;;;;;;13.25;6.03;;;16.10;76.40;;;;;;10772712;33;20060;-75
2023/03/26 16:33:49;;;;;;;6.87;3.65;;;16.00;77.20;;;;;;10787721;33;20020;-74
2023/03/26 16:39:52;;;;;;;13.52;4.45;;;15.90;77.30;;;;;;10769078;33;20078;-74
2023/03/26 16:46:16;;;;;;;15.15;6.18;;;15.70;78.30;;;;;;10784438;33;20390;-75
2023/03/26 16:52:25;;;;;;;19.58;6.90;;;15.60;79.30;;;;;;10773255;33;20037;-74
2023/03/26 16:58:39;;;;;;;22.67;8.52;;;15.40;79.70;;;;;;10787041;33;20067;-79
2023/03/26 17:04:47;;;;;;;8.35;6.28;;;15.20;81.10;;;;;;10788785;33;20028;-77
2023/03/26 17:11:08;;;;;;;18.65;10.40;;;14.90;82.30;;;;;;10790131;33;20020;-76
2023/03/26 17:17:29;;;;;;;9.30;5.50;;;14.80;82.60;;;;;;10792778;33;20024;-77
2023/03/26 17:23:53;;;;;;;16.73;8.93;;;14.70;81.90;;;;;;10771065;32;20041;-78
2023/03/26 17:30:06;;;;;;;11.77;6.62;;;14.80;82.20;;;;;;10771411;33;20083;-78
2023/03/26 17:36:11;;;;;;;10.80;5.78;;;14.70;81.70;;;;;;10786949;33;20375;-79
2023/03/26 17:42:31;;;;;;;7.85;3.65;;;14.70;82.30;;;;;;10790263;33;20386;-79
2023/03/26 17:48:37;;;;;;;11.23;7.32;;;14.70;82.80;;;;;;10792081;33;20051;-79
2023/03/26 17:54:51;;;;;;;14.23;8.98;;;14.60;82.30;;;;;;10779884;33;20017;-78
2023/03/26 18:01:08;;;;;;;9.25;5.47;;;14.30;82.10;;;;;;10793217;33;20032;-77
2023/03/26 18:07:35;;;;;;;7.95;3.45;;;14.20;82.70;;;;;;10774820;32;20033;-77
2023/03/26 18:14:10;;;;;;;5.95;4.05;;;14.10;83.30;;;;;;10789978;33;20024;-76
2023/03/26 18:20:25;;;;;;;4.95;2.80;;;13.80;83.70;;;;;;10864193;32;20054;-76
2023/03/26 18:27:04;;;;;;;4.45;1.95;;;13.60;84.10;;;;;;10867460;32;20034;-77
2023/03/26 18:33:14;;;;;;;2.10;1.92;;;13.60;84.20;;;;;;10826984;32;20028;-77
2023/03/26 18:39:17;;;;;;;5.18;2.85;;;13.70;84.10;;;;;;10825841;32;20441;-76
2023/03/26 18:45:33;;;;;;;2.08;1.20;;;13.80;83.50;;;;;;10814071;32;20031;-76
2023/03/26 18:51:35;;;;;;;3.03;1.27;;;13.60;83.70;;;;;;10796665;32;20041;-77
2023/03/26 18:57:37;;;;;;;0.93;0.73;;;13.70;84.10;;;;;;10676878;33;20044;-76
2023/03/26 19:03:42;;;;;;;2.35;1.87;;;13.90;83.60;;;;;;10675839;33;20042;-77
2023/03/26 19:09:44;;;;;;;0.98;0.93;;;13.90;83.30;;;;;;10774110;33;20028;-76
2023/03/26 19:15:50;;;;;;;1.15;0.80;;;13.90;83.20;;;;;;10790535;33;20016;-76
2023/03/26 19:21:52;;;;;;;1.23;0.90;;;14.00;83.20;;;;;;10789876;33;20354;-76
2023/03/26 19:27:54;;;;;;;2.58;1.20;;;14.10;83.00;;;;;;10771490;33;20200;-77
2023/03/26 19:34:10;;;;;;;0.90;0.60;;;14.00;82.70;;;;;;10771697;33;20351;-76
2023/03/26 19:40:29;;;;;;;1.92;1.52;;;13.90;82.30;;;;;;10771107;32;20036;-76
2023/03/26 19:46:34;;;;;;;8.43;3.83;;;13.70;82.50;;;;;;10789103;33;20327;-77
2023/03/26 19:52:37;;;;;;;9.45;5.80;;;13.70;82.60;;;;;;10785244;33;20437;-77
2023/03/26 19:58:40;;;;;;;5.43;3.15;;;13.50;82.20;;;;;;10788524;33;20055;-76
2023/03/26 20:04:43;;;;;;;5.35;2.87;;;13.30;82.70;;;;;;10784902;33;20050;-76
2023/03/26 20:10:45;;;;;;;3.65;2.78;;;13.30;83.00;;;;;;10788531;33;20402;-77
2023/03/26 20:16:48;;;;;;;3.58;2.72;;;13.30;82.80;;;;;;10789088;33;20028;-76
2023/03/26 20:22:52;;;;;;;5.45;2.72;;;13.10;82.10;;;;;;10773533;33;20440;-73
2023/03/26 20:28:55;;;;;;;4.07;2.37;;;12.90;82.10;;;;;;10776523;33;20338;-73
2023/03/26 20:34:57;;;;;;;2.78;1.67;;;12.90;82.00;;;;;;10787246;33;20394;-73
2023/03/26 20:40:59;;;;;;;3.28;1.62;;;12.90;82.20;;;;;;10785478;33;20318;-73
2023/03/26 20:47:01;;;;;;;3.67;1.98;;;12.90;82.20;;;;;;10756099;33;20407;-73
2023/03/26 20:53:04;;;;;;;1.23;0.93;;;12.90;81.90;;;;;;10749121;33;20335;-73
2023/03/26 20:59:08;;;;;;;2.10;1.40;;;12.90;82.00;;;;;;10751460;33;20385;-72
2023/03/26 21:05:14;;;;;;;1.65;1.27;;;13.20;82.30;;;;;;10750876;33;20016;-73
2023/03/26 21:11:28;;;;;;;2.78;1.70;;;13.40;82.50;;;;;;10748963;33;20060;-73
2023/03/26 21:17:30;;;;;;;2.47;1.60;;;13.40;82.50;;;;;;10751550;33;20039;-73
2023/03/26 21:23:41;;;;;;;3.35;2.37;;;13.20;82.90;;;;;;10756446;33;20033;-73
2023/03/26 21:29:44;;;;;;;2.42;1.50;;;13.20;83.60;;;;;;10757017;33;20020;-72
2023/03/26 21:35:52;;;;;;;2.25;1.62;;;13.20;83.70;;;;;;10756877;33;20083;-72
2023/03/26 21:41:54;;;;;;;5.10;2.47;;;13.20;83.70;;;;;;10757451;33;20032;-72
2023/03/26 21:47:57;;;;;;;1.60;1.50;;;13.30;83.60;;;;;;10755582;33;20064;-72
2023/03/26 21:53:59;;;;;;;2.42;1.65;;;13.20;83.70;;;;;;10755039;32;20037;-72
2023/03/26 22:00:13;;;;;;;2.30;1.40;;;13.10;84.30;;;;;;10756263;33;20406;-72
2023/03/26 22:06:41;;;;;;;4.47;2.85;;;13.10;84.40;;;;;;10756790;33;20377;-73
2023/03/26 22:12:43;;;;;;;2.25;1.48;;;13.10;84.30;;;;;;10759272;32;20449;-72
2023/03/26 22:18:46;;;;;;;1.95;1.60;;;12.80;84.50;;;;;;10752672;33;20024;-73
2023/03/26 22:24:48;;;;;;;1.55;1.12;;;12.90;84.60;;;;;;10755403;33;20040;-72
2023/03/26 22:30:51;;;;;;;1.27;0.82;;;13.00;84.20;;;;;;10750703;33;20021;-76
2023/03/26 22:36:53;;;;;;;3.33;2.10;;;12.80;83.70;;;;;;10754154;33;20048;-75
2023/03/26 22:42:55;;;;;;;1.65;1.05;;;12.80;83.50;;;;;;10754585;33;20024;-75
2023/03/26 22:48:58;;;;;;;4.20;2.15;;;12.70;83.40;;;;;;10751788;33;20055;-74
2023/03/26 22:55:00;;;;;;;4.57;1.75;;;12.70;83.60;;;;;;10754446;33;20406;-74
2023/03/26 23:01:10;;;;;;;3.08;2.10;;;12.70;83.40;;;;;;10752865;33;20059;-74
2023/03/26 23:07:13;;;;;;;2.40;1.65;;;12.70;83.50;;;;;;10753253;33;20024;-72
2023/03/26 23:13:15;;;;;;;5.30;2.83;;;12.50;83.50;;;;;;10754484;33;20025;-72
2023/03/26 23:19:17;;;;;;;3.40;1.95;;;12.40;83.80;;;;;;10754118;33;20024;-72
2023/03/26 23:25:20;;;;;;;2.78;1.90;;;12.20;83.80;;;;;;10750147;33;20039;-72
2023/03/26 23:31:24;;;;;;;2.60;1.40;;;12.30;83.90;;;;;;10754013;33;20248;-72
2023/03/26 23:37:28;;;;;;;3.22;1.67;;;12.30;83.60;;;;;;10753537;33;20029;-72
2023/03/26 23:43:30;;;;;;;2.40;1.42;;;12.40;83.50;;;;;;10753377;33;20048;-72
2023/03/26 23:49:32;;;;;;;5.68;2.65;;;12.50;83.50;;;;;;10763445;27;20047;-72
2023/03/26 23:55:35;;;;;;;3.20;1.80;;;12.70;83.60;;;;;;10789777;33;20008;-72
